createdAt,value
2019-03-31T00:00:24.811Z,0.00
2019-03-31T00:01:24.818Z,0.00
2019-03-31T00:02:24.791Z,0.00
2019-03-31T00:03:24.790Z,0.00
2019-03-31T00:04:24.773Z,0.00
2019-03-31T00:05:24.779Z,0.00
2019-03-31T00:06:24.757Z,0.00
2019-03-31T00:07:24.734Z,0.00
2019-03-31T00:08:24.727Z,0.00
2019-03-31T00:09:24.714Z,0.00
2019-03-31T00:10:24.745Z,0.00
2019-03-31T00:11:24.693Z,0.00
2019-03-31T00:12:24.686Z,0.00
2019-03-31T00:13:24.674Z,0.00
2019-03-31T00:14:24.663Z,0.00
2019-03-31T00:15:24.669Z,0.00
2019-03-31T00:16:24.701Z,0.00
2019-03-31T00:17:24.630Z,0.00
2019-03-31T00:18:24.629Z,0.00
2019-03-31T00:19:24.619Z,0.00
2019-03-31T00:20:24.616Z,0.00
2019-03-31T00:21:24.584Z,0.00
2019-03-31T00:22:24.614Z,0.00
2019-03-31T00:23:24.563Z,0.00
2019-03-31T00:24:24.561Z,0.00
2019-03-31T00:25:24.561Z,0.00
2019-03-31T00:26:24.538Z,0.00
2019-03-31T00:27:24.521Z,0.00
2019-03-31T00:28:24.514Z,0.00
2019-03-31T00:29:24.501Z,0.00
2019-03-31T00:30:24.527Z,0.00
2019-03-31T00:31:24.493Z,0.00
2019-03-31T00:32:24.466Z,0.00
2019-03-31T00:33:24.456Z,0.00
2019-03-31T00:34:24.452Z,0.00
2019-03-31T00:35:24.436Z,0.00
2019-03-31T00:36:24.445Z,0.00
2019-03-31T00:37:24.421Z,0.00
2019-03-31T00:38:24.400Z,0.00
2019-03-31T00:39:24.397Z,0.00
2019-03-31T00:40:24.408Z,0.00
2019-03-31T00:41:24.400Z,0.00
2019-03-31T00:42:24.361Z,0.00
2019-03-31T00:43:24.354Z,0.00
2019-03-31T00:44:24.338Z,0.00
2019-03-31T00:45:24.329Z,0.00
2019-03-31T00:46:24.344Z,0.00
2019-03-31T00:47:24.311Z,0.00
2019-03-31T00:48:24.298Z,0.00
2019-03-31T00:49:24.292Z,0.00
2019-03-31T00:50:24.299Z,0.00
2019-03-31T00:51:24.313Z,0.00
2019-03-31T00:52:24.257Z,0.00
2019-03-31T00:53:24.294Z,0.00
2019-03-31T00:54:27.575Z,0.00
2019-03-31T00:55:24.222Z,0.00
2019-03-31T00:56:24.221Z,0.00
2019-03-31T00:57:24.233Z,0.00
2019-03-31T00:58:24.190Z,0.00
2019-03-31T00:59:24.200Z,0.00
2019-03-31T01:00:24.180Z,0.00
2019-03-31T01:01:35.732Z,0.00
2019-03-31T01:02:25.167Z,0.00
2019-03-31T01:03:24.134Z,0.00
2019-03-31T01:04:24.131Z,0.00
2019-03-31T01:05:24.115Z,0.00
2019-03-31T01:06:24.115Z,0.00
2019-03-31T01:07:24.112Z,0.00
2019-03-31T01:08:24.083Z,0.00
2019-03-31T01:09:24.072Z,0.00
2019-03-31T01:10:24.063Z,0.00
2019-03-31T01:11:24.049Z,0.00
2019-03-31T01:12:24.111Z,0.00
2019-03-31T01:13:24.028Z,0.00
2019-03-31T01:14:24.024Z,0.00
2019-03-31T01:15:24.034Z,0.00
2019-03-31T01:16:23.995Z,0.00
2019-03-31T01:17:24.005Z,0.00
2019-03-31T01:18:31.521Z,0.00
2019-03-31T01:19:31.499Z,0.00
2019-03-31T01:20:32.514Z,0.00
2019-03-31T01:21:23.943Z,0.00
2019-03-31T01:22:32.948Z,0.00
2019-03-31T01:23:31.509Z,0.00
2019-03-31T01:24:23.968Z,0.00
2019-03-31T01:25:31.445Z,0.00
2019-03-31T01:26:31.414Z,0.00
2019-03-31T01:27:32.588Z,0.00
2019-03-31T01:28:31.444Z,0.00
2019-03-31T01:29:23.863Z,0.00
2019-03-31T01:30:23.842Z,0.00
2019-03-31T01:31:23.832Z,0.00
2019-03-31T01:32:23.839Z,0.00
2019-03-31T01:33:23.809Z,0.00
2019-03-31T01:34:23.802Z,0.00
2019-03-31T01:35:23.810Z,0.00
2019-03-31T01:36:23.778Z,0.00
2019-03-31T01:37:23.830Z,0.00
2019-03-31T01:38:23.774Z,0.00
2019-03-31T01:39:23.841Z,0.00
2019-03-31T01:40:23.771Z,0.00
2019-03-31T01:41:23.724Z,0.00
2019-03-31T01:42:23.765Z,0.00
2019-03-31T01:43:23.704Z,0.00
2019-03-31T01:44:23.692Z,0.00
2019-03-31T01:45:23.699Z,0.00
2019-03-31T01:46:23.715Z,0.00
2019-03-31T01:47:23.690Z,0.00
2019-03-31T01:48:23.650Z,0.00
2019-03-31T01:49:23.661Z,0.00
2019-03-31T01:50:23.630Z,0.00
2019-03-31T01:51:23.616Z,0.00
2019-03-31T01:52:23.641Z,0.00
2019-03-31T01:53:23.592Z,0.00
2019-03-31T01:54:33.411Z,0.00
2019-03-31T01:55:31.125Z,0.00
2019-03-31T01:56:31.107Z,0.00
2019-03-31T01:57:33.291Z,0.00
2019-03-31T01:58:23.540Z,0.00
2019-03-31T01:59:23.526Z,0.00
2019-03-31T02:00:23.552Z,0.00
2019-03-31T02:01:23.508Z,0.00
2019-03-31T02:02:23.519Z,0.00
2019-03-31T02:03:23.493Z,0.00
2019-03-31T02:04:23.473Z,0.00
2019-03-31T02:05:23.472Z,0.00
2019-03-31T02:06:23.456Z,0.00
2019-03-31T02:07:23.456Z,0.00
2019-03-31T02:08:23.461Z,0.00
2019-03-31T02:09:23.428Z,0.00
2019-03-31T02:10:23.407Z,0.00
2019-03-31T02:11:23.416Z,0.00
2019-03-31T02:12:23.395Z,0.00
2019-03-31T02:13:23.394Z,0.00
2019-03-31T02:14:23.367Z,0.00
2019-03-31T02:15:23.355Z,0.00
2019-03-31T02:16:23.352Z,0.00
2019-03-31T02:17:23.334Z,0.00
2019-03-31T02:18:23.340Z,0.00
2019-03-31T02:19:23.332Z,0.00
2019-03-31T02:20:23.302Z,0.00
2019-03-31T02:21:23.292Z,0.00
2019-03-31T02:22:23.277Z,0.00
2019-03-31T02:23:23.301Z,0.00
2019-03-31T02:24:23.257Z,0.00
2019-03-31T02:25:23.276Z,0.00
2019-03-31T02:26:23.235Z,0.00
2019-03-31T02:27:23.253Z,0.00
2019-03-31T02:28:23.301Z,0.00
2019-03-31T02:29:23.214Z,0.00
2019-03-31T02:30:23.218Z,0.00
2019-03-31T02:31:23.188Z,0.00
2019-03-31T02:32:24.866Z,0.00
2019-03-31T02:33:23.220Z,0.00
2019-03-31T02:34:23.151Z,0.00
2019-03-31T02:35:23.162Z,0.00
2019-03-31T02:36:23.130Z,0.00
2019-03-31T02:37:23.144Z,0.00
2019-03-31T02:38:23.110Z,0.00
2019-03-31T02:39:23.211Z,0.00
2019-03-31T02:40:23.085Z,0.00
2019-03-31T02:41:23.077Z,0.00
2019-03-31T02:42:23.100Z,0.00
2019-03-31T02:43:23.061Z,0.00
2019-03-31T02:44:23.051Z,0.00
2019-03-31T02:45:23.078Z,0.00
2019-03-31T02:46:23.028Z,0.00
2019-03-31T02:47:23.043Z,0.00
2019-03-31T02:48:23.000Z,0.00
2019-03-31T02:49:22.998Z,0.00
2019-03-31T02:50:23.001Z,0.00
2019-03-31T02:51:22.965Z,0.00
2019-03-31T02:52:22.961Z,0.00
2019-03-31T02:53:22.944Z,0.00
2019-03-31T02:54:22.937Z,0.00
2019-03-31T02:55:22.989Z,0.00
2019-03-31T02:56:22.909Z,0.00
2019-03-31T02:57:22.897Z,0.00
2019-03-31T02:58:22.890Z,0.00
2019-03-31T02:59:22.884Z,0.00
2019-03-31T03:00:22.891Z,0.00
2019-03-31T03:01:22.893Z,0.00
2019-03-31T03:02:40.238Z,0.00
2019-03-31T03:03:23.947Z,0.00
2019-03-31T03:04:22.825Z,0.00
2019-03-31T03:05:22.818Z,0.00
2019-03-31T03:06:22.853Z,0.00
2019-03-31T03:07:22.812Z,0.00
2019-03-31T03:08:30.329Z,0.00
2019-03-31T03:09:30.333Z,0.00
2019-03-31T03:10:22.764Z,0.00
2019-03-31T03:11:22.776Z,0.00
2019-03-31T03:12:22.739Z,0.00
2019-03-31T03:13:22.767Z,0.00
2019-03-31T03:14:22.716Z,0.00
2019-03-31T03:15:22.709Z,0.00
2019-03-31T03:16:22.731Z,0.00
2019-03-31T03:17:22.684Z,0.00
2019-03-31T03:18:22.674Z,0.00
2019-03-31T03:19:22.667Z,0.00
2019-03-31T03:20:22.657Z,0.00
2019-03-31T03:21:31.385Z,0.00
2019-03-31T03:22:22.647Z,0.00
2019-03-31T03:23:22.623Z,0.00
2019-03-31T03:24:22.626Z,0.00
2019-03-31T03:25:22.599Z,0.00
2019-03-31T03:26:22.586Z,0.00
2019-03-31T03:27:22.612Z,0.00
2019-03-31T03:28:22.582Z,0.00
2019-03-31T03:29:22.559Z,0.00
2019-03-31T03:30:22.703Z,0.00
2019-03-31T03:31:22.632Z,0.00
2019-03-31T03:32:22.593Z,0.00
2019-03-31T03:33:22.528Z,0.00
2019-03-31T03:34:22.513Z,0.00
2019-03-31T03:35:22.514Z,0.00
2019-03-31T03:36:22.504Z,0.00
2019-03-31T03:37:22.469Z,0.00
2019-03-31T03:38:22.546Z,0.00
2019-03-31T03:39:22.448Z,0.00
2019-03-31T03:40:22.447Z,0.00
2019-03-31T03:41:22.436Z,0.00
2019-03-31T03:42:22.455Z,0.00
2019-03-31T03:43:22.435Z,0.00
2019-03-31T03:44:22.391Z,0.00
2019-03-31T03:45:22.408Z,0.00
2019-03-31T03:46:22.378Z,0.00
2019-03-31T03:47:22.380Z,0.00
2019-03-31T03:48:22.371Z,0.00
2019-03-31T03:49:22.352Z,0.00
2019-03-31T03:50:22.328Z,0.00
2019-03-31T03:51:22.343Z,0.00
2019-03-31T03:52:22.353Z,0.00
2019-03-31T03:53:22.335Z,0.00
2019-03-31T03:54:22.291Z,0.00
2019-03-31T03:55:22.291Z,0.00
2019-03-31T03:56:22.266Z,0.00
2019-03-31T03:57:22.271Z,0.00
2019-03-31T03:58:22.258Z,0.00
2019-03-31T03:59:22.248Z,0.00
2019-03-31T04:00:22.226Z,0.00
2019-03-31T04:01:22.245Z,0.00
2019-03-31T04:02:22.222Z,0.00
2019-03-31T04:03:30.487Z,0.00
2019-03-31T04:04:23.184Z,0.00
2019-03-31T04:05:22.168Z,0.00
2019-03-31T04:06:22.163Z,0.00
2019-03-31T04:07:22.163Z,0.00
2019-03-31T04:08:22.136Z,0.00
2019-03-31T04:09:22.137Z,0.00
2019-03-31T04:10:22.126Z,0.00
2019-03-31T04:11:22.261Z,0.00
2019-03-31T04:12:22.134Z,0.00
2019-03-31T04:13:22.300Z,0.00
2019-03-31T04:14:22.077Z,0.00
2019-03-31T04:15:22.077Z,0.00
2019-03-31T04:16:22.058Z,0.00
2019-03-31T04:17:22.090Z,0.00
2019-03-31T04:18:22.032Z,0.00
2019-03-31T04:19:22.018Z,0.00
2019-03-31T04:20:22.013Z,0.00
2019-03-31T04:21:22.016Z,0.00
2019-03-31T04:22:22.012Z,0.00
2019-03-31T04:23:21.982Z,0.00
2019-03-31T04:24:21.991Z,0.00
2019-03-31T04:25:21.954Z,0.00
2019-03-31T04:26:21.944Z,0.00
2019-03-31T04:27:21.980Z,0.00
2019-03-31T04:28:21.932Z,0.00
2019-03-31T04:29:21.917Z,0.00
2019-03-31T04:30:21.900Z,0.00
2019-03-31T04:31:21.887Z,0.00
2019-03-31T04:32:21.900Z,0.00
2019-03-31T04:33:21.881Z,0.00
2019-03-31T04:34:21.858Z,0.00
2019-03-31T04:35:21.857Z,0.00
2019-03-31T04:36:21.836Z,0.00
2019-03-31T04:37:21.839Z,0.00
2019-03-31T04:38:21.815Z,0.00
2019-03-31T04:39:21.814Z,0.00
2019-03-31T04:40:21.797Z,0.00
2019-03-31T04:41:21.781Z,0.00
2019-03-31T04:42:21.809Z,0.00
2019-03-31T04:43:21.757Z,0.00
2019-03-31T04:44:21.746Z,0.00
2019-03-31T04:45:21.741Z,0.00
2019-03-31T04:46:21.739Z,4.00
2019-03-31T04:47:21.738Z,0.00
2019-03-31T04:48:21.705Z,0.00
2019-03-31T04:49:21.702Z,4.00
2019-03-31T04:50:21.687Z,0.00
2019-03-31T04:51:21.746Z,4.00
2019-03-31T04:52:21.676Z,4.00
2019-03-31T04:53:21.652Z,4.00
2019-03-31T04:54:21.639Z,4.00
2019-03-31T04:55:21.689Z,8.00
2019-03-31T04:56:21.625Z,8.00
2019-03-31T04:57:21.629Z,8.00
2019-03-31T04:58:21.629Z,12.00
2019-03-31T04:59:21.593Z,12.00
2019-03-31T05:00:21.604Z,16.00
2019-03-31T05:01:21.591Z,16.00
2019-03-31T05:02:21.712Z,20.00
2019-03-31T05:03:21.579Z,24.00
2019-03-31T05:04:21.588Z,24.00
2019-03-31T05:05:21.522Z,28.00
2019-03-31T05:06:21.510Z,32.00
2019-03-31T05:07:21.525Z,32.00
2019-03-31T05:08:21.514Z,36.00
2019-03-31T05:09:21.540Z,40.00
2019-03-31T05:10:21.474Z,44.00
2019-03-31T05:11:21.458Z,52.00
2019-03-31T05:12:21.473Z,56.00
2019-03-31T05:13:21.442Z,60.00
2019-03-31T05:14:21.447Z,68.00
2019-03-31T05:15:21.418Z,72.00
2019-03-31T05:16:21.546Z,80.00
2019-03-31T05:17:21.414Z,84.00
2019-03-31T05:18:21.384Z,92.00
2019-03-31T05:19:21.373Z,100.00
2019-03-31T05:20:21.361Z,104.00
2019-03-31T05:21:21.350Z,116.00
2019-03-31T05:22:21.358Z,124.00
2019-03-31T05:23:21.396Z,132.00
2019-03-31T05:24:21.318Z,140.00
2019-03-31T05:25:21.413Z,144.00
2019-03-31T05:26:21.303Z,156.00
2019-03-31T05:27:29.918Z,168.00
2019-03-31T05:28:29.850Z,176.00
2019-03-31T05:29:30.102Z,184.00
2019-03-31T05:30:29.823Z,200.00
2019-03-31T05:31:28.810Z,212.00
2019-03-31T05:32:21.249Z,220.00
2019-03-31T05:33:21.217Z,232.00
2019-03-31T05:34:21.214Z,244.00
2019-03-31T05:35:21.200Z,256.00
2019-03-31T05:36:21.192Z,264.00
2019-03-31T05:37:21.228Z,276.00
2019-03-31T05:38:21.166Z,288.00
2019-03-31T05:39:21.155Z,300.00
2019-03-31T05:40:21.154Z,316.00
2019-03-31T05:41:21.137Z,328.00
2019-03-31T05:42:21.224Z,340.00
2019-03-31T05:43:21.150Z,356.00
2019-03-31T05:44:21.110Z,372.00
2019-03-31T05:45:21.093Z,384.00
2019-03-31T05:46:21.139Z,396.00
2019-03-31T05:47:21.112Z,412.00
2019-03-31T05:48:21.069Z,428.00
2019-03-31T05:49:21.091Z,444.00
2019-03-31T05:50:21.069Z,460.00
2019-03-31T05:51:21.042Z,480.00
2019-03-31T05:52:21.098Z,500.00
2019-03-31T05:53:21.013Z,516.00
2019-03-31T05:54:20.993Z,540.00
2019-03-31T05:55:20.991Z,568.00
2019-03-31T05:56:20.970Z,596.00
2019-03-31T05:57:20.963Z,620.00
2019-03-31T05:58:20.975Z,648.00
2019-03-31T05:59:20.939Z,712.00
2019-03-31T06:00:20.929Z,748.00
2019-03-31T06:01:20.928Z,744.00
2019-03-31T06:02:20.907Z,792.00
2019-03-31T06:03:20.936Z,848.00
2019-03-31T06:04:32.582Z,820.00
2019-03-31T06:05:21.888Z,784.00
2019-03-31T06:06:20.904Z,812.00
2019-03-31T06:07:20.851Z,852.00
2019-03-31T06:08:20.887Z,872.00
2019-03-31T06:09:20.845Z,896.00
2019-03-31T06:10:20.822Z,916.00
2019-03-31T06:11:20.818Z,944.00
2019-03-31T06:12:20.805Z,984.00
2019-03-31T06:13:20.819Z,1000.00
2019-03-31T06:14:20.780Z,1032.00
2019-03-31T06:15:20.786Z,1036.00
2019-03-31T06:16:20.762Z,1032.00
2019-03-31T06:17:20.768Z,1036.00
2019-03-31T06:18:20.752Z,1044.00
2019-03-31T06:19:20.749Z,1084.00
2019-03-31T06:20:20.719Z,1112.00
2019-03-31T06:21:20.723Z,1128.00
2019-03-31T06:22:20.697Z,1100.00
2019-03-31T06:23:20.702Z,1076.00
2019-03-31T06:24:20.733Z,1072.00
2019-03-31T06:25:20.680Z,1084.00
2019-03-31T06:26:20.651Z,1072.00
2019-03-31T06:27:20.650Z,1088.00
2019-03-31T06:28:20.668Z,1144.00
2019-03-31T06:29:20.643Z,1200.00
2019-03-31T06:30:20.735Z,1236.00
2019-03-31T06:31:20.594Z,1248.00
2019-03-31T06:32:20.585Z,1216.00
2019-03-31T06:33:20.572Z,1284.00
2019-03-31T06:34:20.566Z,1464.00
2019-03-31T06:35:20.608Z,1576.00
2019-03-31T06:36:20.609Z,1524.00
2019-03-31T06:37:20.531Z,1396.00
2019-03-31T06:38:20.530Z,1356.00
2019-03-31T06:39:20.576Z,1356.00
2019-03-31T06:40:20.552Z,1328.00
2019-03-31T06:41:20.496Z,1264.00
2019-03-31T06:42:20.473Z,1220.00
2019-03-31T06:43:20.509Z,1212.00
2019-03-31T06:44:20.467Z,1264.00
2019-03-31T06:45:20.464Z,1316.00
2019-03-31T06:46:20.437Z,1348.00
2019-03-31T06:47:20.428Z,1360.00
2019-03-31T06:48:20.409Z,1368.00
2019-03-31T06:49:20.408Z,1348.00
2019-03-31T06:50:30.115Z,1364.00
2019-03-31T06:51:20.375Z,1404.00
2019-03-31T06:52:20.368Z,1460.00
2019-03-31T06:53:20.361Z,1552.00
2019-03-31T06:54:20.345Z,1656.00
2019-03-31T06:55:20.356Z,1740.00
2019-03-31T06:56:20.327Z,1828.00
2019-03-31T06:57:20.322Z,1852.00
2019-03-31T06:58:20.305Z,1908.00
2019-03-31T06:59:20.312Z,1980.00
2019-03-31T07:00:20.316Z,2116.00
2019-03-31T07:01:20.268Z,2184.00
2019-03-31T07:02:20.317Z,2300.00
2019-03-31T07:03:20.309Z,2372.00
2019-03-31T07:04:20.242Z,2400.00
2019-03-31T07:05:20.299Z,2420.00
2019-03-31T07:06:20.257Z,2472.00
2019-03-31T07:07:23.588Z,2516.00
2019-03-31T07:08:20.198Z,2568.00
2019-03-31T07:09:20.184Z,2644.00
2019-03-31T07:10:20.173Z,2760.00
2019-03-31T07:11:20.183Z,2836.00
2019-03-31T07:12:20.165Z,2836.00
2019-03-31T07:13:20.147Z,2720.00
2019-03-31T07:14:20.127Z,2644.00
2019-03-31T07:15:20.117Z,2584.00
2019-03-31T07:16:20.110Z,2588.00
2019-03-31T07:17:20.115Z,2776.00
2019-03-31T07:18:20.126Z,2856.00
2019-03-31T07:19:20.087Z,2888.00
2019-03-31T07:20:20.088Z,2920.00
2019-03-31T07:21:20.050Z,2952.00
2019-03-31T07:22:20.061Z,3012.00
2019-03-31T07:23:20.075Z,3068.00
2019-03-31T07:24:20.024Z,3108.00
2019-03-31T07:25:20.064Z,3140.00
2019-03-31T07:26:20.029Z,3168.00
2019-03-31T07:27:19.990Z,3212.00
2019-03-31T07:28:20.006Z,3248.00
2019-03-31T07:29:19.990Z,3288.00
2019-03-31T07:30:19.965Z,3340.00
2019-03-31T07:31:19.981Z,3396.00
2019-03-31T07:32:19.943Z,3460.00
2019-03-31T07:33:19.938Z,3516.00
2019-03-31T07:34:19.910Z,3576.00
2019-03-31T07:35:19.914Z,3624.00
2019-03-31T07:36:19.904Z,3696.00
2019-03-31T07:37:19.941Z,3748.00
2019-03-31T07:38:19.961Z,3796.00
2019-03-31T07:39:20.188Z,3836.00
2019-03-31T07:40:20.129Z,3856.00
2019-03-31T07:41:20.201Z,3868.00
2019-03-31T07:42:19.860Z,3872.00
2019-03-31T07:43:19.998Z,3908.00
2019-03-31T07:44:19.807Z,3944.00
2019-03-31T07:45:19.799Z,3968.00
2019-03-31T07:46:19.821Z,4020.00
2019-03-31T07:47:19.773Z,4068.00
2019-03-31T07:48:19.817Z,4084.00
2019-03-31T07:49:19.752Z,4104.00
2019-03-31T07:50:19.739Z,4128.00
2019-03-31T07:51:27.288Z,4132.00
2019-03-31T07:52:28.279Z,4152.00
2019-03-31T07:53:19.727Z,4196.00
2019-03-31T07:54:19.700Z,4268.00
2019-03-31T07:55:19.683Z,4348.00
2019-03-31T07:56:19.676Z,4444.00
2019-03-31T07:57:19.663Z,4528.00
2019-03-31T07:58:19.730Z,4592.00
2019-03-31T07:59:19.651Z,4628.00
2019-03-31T08:00:19.636Z,4660.00
2019-03-31T08:01:19.619Z,4688.00
2019-03-31T08:02:19.616Z,4716.00
2019-03-31T08:03:19.627Z,4740.00
2019-03-31T08:04:19.591Z,4760.00
2019-03-31T08:05:32.371Z,4796.00
2019-03-31T08:06:20.563Z,4824.00
2019-03-31T08:07:19.552Z,4844.00
2019-03-31T08:08:19.613Z,4868.00
2019-03-31T08:09:19.540Z,4892.00
2019-03-31T08:10:19.528Z,4920.00
2019-03-31T08:11:19.511Z,4960.00
2019-03-31T08:12:19.500Z,5028.00
2019-03-31T08:13:19.598Z,5076.00
2019-03-31T08:14:19.481Z,5116.00
2019-03-31T08:15:19.538Z,5160.00
2019-03-31T08:16:19.461Z,5200.00
2019-03-31T08:17:19.455Z,5252.00
2019-03-31T08:18:19.482Z,5292.00
2019-03-31T08:19:20.883Z,5352.00
2019-03-31T08:20:19.417Z,5416.00
2019-03-31T08:21:19.399Z,5472.00
2019-03-31T08:22:19.394Z,5504.00
2019-03-31T08:23:19.404Z,5552.00
2019-03-31T08:24:19.367Z,5596.00
2019-03-31T08:25:19.372Z,5652.00
2019-03-31T08:26:19.378Z,5716.00
2019-03-31T08:27:19.347Z,5776.00
2019-03-31T08:28:19.411Z,5816.00
2019-03-31T08:29:19.334Z,5864.00
2019-03-31T08:30:19.303Z,5940.00
2019-03-31T08:31:19.292Z,6044.00
2019-03-31T08:32:19.298Z,6152.00
2019-03-31T08:33:19.334Z,6264.00
2019-03-31T08:34:19.352Z,6368.00
2019-03-31T08:35:19.248Z,6416.00
2019-03-31T08:36:19.242Z,6452.00
2019-03-31T08:37:19.236Z,6480.00
2019-03-31T08:38:19.243Z,6528.00
2019-03-31T08:39:19.208Z,6568.00
2019-03-31T08:40:19.197Z,6620.00
2019-03-31T08:41:19.182Z,6664.00
2019-03-31T08:42:19.172Z,6720.00
2019-03-31T08:43:19.235Z,6784.00
2019-03-31T08:44:19.198Z,6824.00
2019-03-31T08:45:19.145Z,6872.00
2019-03-31T08:46:19.137Z,6944.00
2019-03-31T08:47:19.216Z,7016.00
2019-03-31T08:48:19.124Z,7072.00
2019-03-31T08:49:19.106Z,7092.00
2019-03-31T08:50:19.090Z,7116.00
2019-03-31T08:51:19.090Z,7132.00
2019-03-31T08:52:19.067Z,7156.00
2019-03-31T08:53:19.081Z,7160.00
2019-03-31T08:54:19.043Z,7180.00
2019-03-31T08:55:19.063Z,7200.00
2019-03-31T08:56:19.021Z,7284.00
2019-03-31T08:57:19.011Z,7360.00
2019-03-31T08:58:19.022Z,7412.00
2019-03-31T08:59:19.016Z,7500.00
2019-03-31T09:00:18.978Z,7600.00
2019-03-31T09:01:18.968Z,7688.00
2019-03-31T09:02:18.964Z,7756.00
2019-03-31T09:03:19.070Z,7848.00
2019-03-31T09:04:18.980Z,7904.00
2019-03-31T09:05:18.927Z,7968.00
2019-03-31T09:06:18.979Z,8044.00
2019-03-31T09:07:18.913Z,8156.00
2019-03-31T09:08:18.906Z,8200.00
2019-03-31T09:09:18.913Z,8220.00
2019-03-31T09:10:18.876Z,8252.00
2019-03-31T09:11:18.862Z,8272.00
2019-03-31T09:12:18.865Z,8316.00
2019-03-31T09:13:18.881Z,8364.00
2019-03-31T09:14:18.826Z,8468.00
2019-03-31T09:15:26.412Z,8568.00
2019-03-31T09:16:18.802Z,8644.00
2019-03-31T09:17:18.790Z,8744.00
2019-03-31T09:18:18.785Z,8864.00
2019-03-31T09:19:18.785Z,8984.00
2019-03-31T09:20:18.770Z,9076.00
2019-03-31T09:21:18.774Z,9248.00
2019-03-31T09:22:18.737Z,9472.00
2019-03-31T09:23:18.731Z,9856.00
2019-03-31T09:24:18.737Z,10228.00
2019-03-31T09:25:18.706Z,10532.00
2019-03-31T09:26:18.726Z,10772.00
2019-03-31T09:27:18.716Z,10996.00
2019-03-31T09:28:18.675Z,11232.00
2019-03-31T09:29:18.732Z,11176.00
2019-03-31T09:30:18.708Z,11216.00
2019-03-31T09:31:18.640Z,11428.00
2019-03-31T09:32:18.648Z,11192.00
2019-03-31T09:33:18.635Z,9836.00
2019-03-31T09:34:18.629Z,12384.00
2019-03-31T09:35:18.599Z,12092.00
2019-03-31T09:36:18.587Z,8696.00
2019-03-31T09:37:18.576Z,10576.00
2019-03-31T09:38:18.596Z,10556.00
2019-03-31T09:39:18.595Z,20064.00
2019-03-31T09:40:18.554Z,11424.00
2019-03-31T09:41:18.537Z,14280.00
2019-03-31T09:42:18.520Z,16672.00
2019-03-31T09:43:18.521Z,28256.00
2019-03-31T09:44:18.523Z,29248.00
2019-03-31T09:45:18.495Z,30720.00
2019-03-31T09:46:18.525Z,33664.00
2019-03-31T09:47:18.466Z,33888.00
2019-03-31T09:48:18.458Z,32864.00
2019-03-31T09:49:18.487Z,27456.00
2019-03-31T09:50:18.450Z,17024.00
2019-03-31T09:51:18.424Z,24512.00
2019-03-31T09:52:18.430Z,27424.00
2019-03-31T09:53:18.402Z,14496.00
2019-03-31T09:54:18.419Z,29888.00
2019-03-31T09:55:18.399Z,27360.00
2019-03-31T09:56:25.935Z,13208.00
2019-03-31T09:57:26.951Z,20160.00
2019-03-31T09:58:25.907Z,28864.00
2019-03-31T09:59:18.355Z,20032.00
2019-03-31T10:00:25.875Z,12520.00
2019-03-31T10:01:26.877Z,9980.00
2019-03-31T10:02:18.305Z,8736.00
2019-03-31T10:03:18.295Z,7644.00
2019-03-31T10:04:18.335Z,6948.00
2019-03-31T10:05:18.273Z,7420.00
2019-03-31T10:06:29.693Z,8968.00
2019-03-31T10:07:19.255Z,8108.00
2019-03-31T10:08:21.815Z,12788.00
2019-03-31T10:09:18.253Z,8640.00
2019-03-31T10:10:18.275Z,8516.00
2019-03-31T10:11:18.216Z,10656.00
2019-03-31T10:12:18.279Z,7696.00
2019-03-31T10:13:18.194Z,6860.00
2019-03-31T10:14:18.210Z,7488.00
2019-03-31T10:15:18.183Z,10356.00
2019-03-31T10:16:18.267Z,30912.00
2019-03-31T10:17:18.148Z,11224.00
2019-03-31T10:18:18.473Z,12668.00
2019-03-31T10:19:18.181Z,7060.00
2019-03-31T10:20:18.145Z,6452.00
2019-03-31T10:21:18.112Z,6340.00
2019-03-31T10:22:18.094Z,6256.00
2019-03-31T10:23:18.116Z,6104.00
2019-03-31T10:24:18.101Z,6040.00
2019-03-31T10:25:18.061Z,6116.00
2019-03-31T10:26:31.113Z,6080.00
2019-03-31T10:27:19.046Z,5940.00
2019-03-31T10:28:18.027Z,5776.00
2019-03-31T10:29:18.059Z,6064.00
2019-03-31T10:30:18.011Z,5820.00
2019-03-31T10:31:18.003Z,5580.00
2019-03-31T10:32:18.021Z,5432.00
2019-03-31T10:33:18.006Z,5536.00
2019-03-31T10:34:18.041Z,5352.00
2019-03-31T10:35:17.994Z,5156.00
2019-03-31T10:36:17.985Z,5120.00
2019-03-31T10:37:18.043Z,5244.00
2019-03-31T10:38:17.925Z,5352.00
2019-03-31T10:39:17.930Z,5432.00
2019-03-31T10:40:17.900Z,5568.00
2019-03-31T10:41:17.949Z,5960.00
2019-03-31T10:42:17.878Z,6196.00
2019-03-31T10:43:17.866Z,6172.00
2019-03-31T10:44:17.882Z,5964.00
2019-03-31T10:45:17.866Z,5752.00
2019-03-31T10:46:17.836Z,5768.00
2019-03-31T10:47:17.837Z,5832.00
2019-03-31T10:48:20.960Z,6044.00
2019-03-31T10:49:17.824Z,6436.00
2019-03-31T10:50:17.788Z,7116.00
2019-03-31T10:51:17.782Z,7216.00
2019-03-31T10:52:17.789Z,7056.00
2019-03-31T10:53:17.763Z,6812.00
2019-03-31T10:54:17.767Z,6660.00
2019-03-31T10:55:17.797Z,6184.00
2019-03-31T10:56:17.726Z,5908.00
2019-03-31T10:57:17.722Z,5836.00
2019-03-31T10:58:17.710Z,5492.00
2019-03-31T10:59:17.745Z,5436.00
2019-03-31T11:00:17.692Z,5344.00
2019-03-31T11:01:17.674Z,5252.00
2019-03-31T11:02:17.663Z,5184.00
2019-03-31T11:03:17.660Z,5300.00
2019-03-31T11:04:17.668Z,5600.00
2019-03-31T11:05:17.637Z,6212.00
2019-03-31T11:06:17.678Z,7076.00
2019-03-31T11:07:17.615Z,8072.00
2019-03-31T11:08:17.609Z,9844.00
2019-03-31T11:09:17.611Z,10044.00
2019-03-31T11:10:17.758Z,9916.00
2019-03-31T11:11:17.570Z,8856.00
2019-03-31T11:12:17.557Z,8084.00
2019-03-31T11:13:17.556Z,6884.00
2019-03-31T11:14:17.558Z,6252.00
2019-03-31T11:15:17.606Z,5896.00
2019-03-31T11:16:17.559Z,5668.00
2019-03-31T11:17:17.508Z,5484.00
2019-03-31T11:18:17.506Z,5356.00
2019-03-31T11:19:17.538Z,5328.00
2019-03-31T11:20:17.482Z,5360.00
2019-03-31T11:21:17.467Z,5456.00
2019-03-31T11:22:17.452Z,5560.00
2019-03-31T11:23:17.452Z,5680.00
2019-03-31T11:24:17.448Z,5868.00
2019-03-31T11:25:22.074Z,6152.00
2019-03-31T11:26:18.431Z,6628.00
2019-03-31T11:27:17.413Z,7616.00
2019-03-31T11:28:17.387Z,9372.00
2019-03-31T11:29:17.403Z,10012.00
2019-03-31T11:30:17.387Z,10252.00
2019-03-31T11:31:18.057Z,10308.00
2019-03-31T11:32:17.352Z,10252.00
2019-03-31T11:33:17.354Z,11204.00
2019-03-31T11:34:19.651Z,11248.00
2019-03-31T11:35:17.317Z,11304.00
2019-03-31T11:36:17.303Z,11388.00
2019-03-31T11:37:17.325Z,11324.00
2019-03-31T11:38:17.287Z,11300.00
2019-03-31T11:39:17.291Z,11188.00
2019-03-31T11:40:17.290Z,11288.00
2019-03-31T11:41:17.274Z,10944.00
2019-03-31T11:42:17.263Z,10716.00
2019-03-31T11:43:25.777Z,10356.00
2019-03-31T11:44:17.228Z,9188.00
2019-03-31T11:45:17.238Z,8904.00
2019-03-31T11:46:17.224Z,8468.00
2019-03-31T11:47:17.177Z,7856.00
2019-03-31T11:48:17.180Z,7512.00
2019-03-31T11:49:17.216Z,7004.00
2019-03-31T11:50:17.156Z,6672.00
2019-03-31T11:51:17.136Z,6628.00
2019-03-31T11:52:17.130Z,6736.00
2019-03-31T11:53:17.120Z,6904.00
2019-03-31T11:54:17.159Z,7188.00
2019-03-31T11:55:17.112Z,7472.00
2019-03-31T11:56:17.095Z,7852.00
2019-03-31T11:57:17.663Z,8276.00
2019-03-31T11:58:17.077Z,8436.00
2019-03-31T11:59:17.061Z,8724.00
2019-03-31T12:00:17.063Z,9468.00
2019-03-31T12:01:17.102Z,10748.00
2019-03-31T12:02:27.134Z,11148.00
2019-03-31T12:03:18.005Z,10940.00
2019-03-31T12:04:16.993Z,9504.00
2019-03-31T12:05:17.020Z,10124.00
2019-03-31T12:06:17.038Z,10384.00
2019-03-31T12:07:27.176Z,11256.00
2019-03-31T12:08:17.979Z,11412.00
2019-03-31T12:09:17.399Z,10972.00
2019-03-31T12:10:19.775Z,10220.00
2019-03-31T12:11:16.966Z,10624.00
2019-03-31T12:12:16.919Z,10472.00
2019-03-31T12:13:16.920Z,9164.00
2019-03-31T12:14:16.885Z,9948.00
2019-03-31T12:15:16.897Z,9952.00
2019-03-31T12:16:16.877Z,10012.00
2019-03-31T12:17:16.884Z,9916.00
2019-03-31T12:18:16.849Z,9836.00
2019-03-31T12:19:16.856Z,9792.00
2019-03-31T12:20:16.836Z,9756.00
2019-03-31T12:21:16.845Z,9684.00
2019-03-31T12:22:16.801Z,9652.00
2019-03-31T12:23:16.925Z,9620.00
2019-03-31T12:24:16.792Z,9008.00
2019-03-31T12:26:45.179Z,9776.00
2019-03-31T12:27:45.153Z,9516.00
2019-03-31T12:28:45.139Z,9656.00
2019-03-31T12:29:54.760Z,9844.00
2019-03-31T12:30:45.117Z,9076.00
2019-03-31T12:31:45.107Z,8708.00
2019-03-31T12:32:45.110Z,8140.00
2019-03-31T12:33:45.088Z,8444.00
2019-03-31T12:34:45.094Z,8344.00